sensor_id;sensor_type;location;lat;lon;timestamp;P1;durP1;ratioP1;P2;durP2;ratioP2
75704;SDS011;64391;44.686;37.628;2022-11-15T09:46:43;3.17;;;1.60;;
75704;SDS011;64391;44.686;37.628;2022-11-15T09:50:12;5.50;;;1.30;;
75704;SDS011;64391;44.686;37.628;2022-11-15T09:51:24;2.47;;;1.05;;
75704;SDS011;64391;44.686;37.628;2022-11-15T09:52:29;3.30;;;1.00;;
75704;SDS011;64391;44.686;37.628;2022-11-15T09:54:43;1.60;;;1.08;;
75704;SDS011;64391;44.686;37.628;2022-11-15T09:55:52;9.23;;;1.30;;
75704;SDS011;64391;44.686;37.628;2022-11-15T09:57:05;6.68;;;1.50;;
75704;SDS011;64391;44.686;37.628;2022-11-15T09:58:18;3.47;;;1.30;;
75704;SDS011;64391;44.686;37.628;2022-11-15T10:00:51;2.25;;;1.10;;
75704;SDS011;64391;44.686;37.628;2022-11-15T10:03:34;2.92;;;1.40;;
75704;SDS011;64391;44.686;37.628;2022-11-15T10:04:40;2.92;;;1.40;;
75704;SDS011;64391;44.686;37.628;2022-11-15T10:05:48;5.80;;;1.50;;
75704;SDS011;64391;44.686;37.628;2022-11-15T10:07:03;3.58;;;1.60;;
75704;SDS011;64391;44.686;37.628;2022-11-15T10:09:49;7.57;;;1.52;;
75704;SDS011;64391;44.686;37.628;2022-11-15T10:10:58;4.47;;;1.52;;
75704;SDS011;64391;44.686;37.628;2022-11-15T10:12:04;3.42;;;1.27;;
75704;SDS011;64391;44.686;37.628;2022-11-15T10:13:15;4.07;;;1.40;;
75704;SDS011;64391;44.686;37.628;2022-11-15T10:14:24;6.75;;;1.73;;
75704;SDS011;64391;44.686;37.628;2022-11-15T10:15:28;2.70;;;1.40;;
75704;SDS011;64391;44.686;37.628;2022-11-15T10:17:50;4.40;;;1.55;;
75704;SDS011;64391;44.686;37.628;2022-11-15T10:18:59;3.42;;;1.33;;
75704;SDS011;64391;44.686;37.628;2022-11-15T10:20:22;4.65;;;1.50;;
75704;SDS011;64391;44.686;37.628;2022-11-15T10:21:48;3.28;;;1.35;;
75704;SDS011;64391;44.686;37.628;2022-11-15T10:22:55;3.15;;;1.42;;
75704;SDS011;64391;44.686;37.628;2022-11-15T10:24:00;4.32;;;1.40;;
75704;SDS011;64391;44.686;37.628;2022-11-15T10:26:11;6.18;;;1.70;;
75704;SDS011;64391;44.686;37.628;2022-11-15T10:27:18;2.88;;;1.50;;
75704;SDS011;64391;44.686;37.628;2022-11-15T10:28:21;2.17;;;1.30;;
75704;SDS011;64391;44.686;37.628;2022-11-15T10:29:27;5.30;;;1.38;;
75704;SDS011;64391;44.686;37.628;2022-11-15T10:32:05;7.03;;;1.30;;
75704;SDS011;64391;44.686;37.628;2022-11-15T10:33:26;5.28;;;1.33;;
75704;SDS011;64391;44.686;37.628;2022-11-15T10:34:34;1.85;;;1.30;;
75704;SDS011;64391;44.686;37.628;2022-11-15T10:35:37;2.30;;;1.52;;
75704;SDS011;64391;44.686;37.628;2022-11-15T10:36:43;8.20;;;1.42;;
75704;SDS011;64391;44.686;37.628;2022-11-15T10:38:08;2.72;;;1.27;;
75704;SDS011;64391;44.686;37.628;2022-11-15T10:39:11;3.72;;;1.52;;
75704;SDS011;64391;44.686;37.628;2022-11-15T10:40:16;2.90;;;1.60;;
75704;SDS011;64391;44.686;37.628;2022-11-15T10:42:28;2.90;;;1.58;;
75704;SDS011;64391;44.686;37.628;2022-11-15T10:43:30;3.53;;;1.70;;
75704;SDS011;64391;44.686;37.628;2022-11-15T10:45:42;3.33;;;1.80;;
75704;SDS011;64391;44.686;37.628;2022-11-15T10:46:45;5.97;;;1.70;;
75704;SDS011;64391;44.686;37.628;2022-11-15T10:47:49;3.13;;;1.77;;
75704;SDS011;64391;44.686;37.628;2022-11-15T10:48:52;2.38;;;1.60;;
75704;SDS011;64391;44.686;37.628;2022-11-15T10:50:05;5.03;;;1.60;;
75704;SDS011;64391;44.686;37.628;2022-11-15T10:51:18;5.28;;;1.45;;
75704;SDS011;64391;44.686;37.628;2022-11-15T10:52:29;2.40;;;1.63;;
75704;SDS011;64391;44.686;37.628;2022-11-15T10:53:38;2.88;;;1.70;;
75704;SDS011;64391;44.686;37.628;2022-11-15T10:54:49;3.00;;;1.60;;
75704;SDS011;64391;44.686;37.628;2022-11-15T10:55:59;1.85;;;1.65;;
75704;SDS011;64391;44.686;37.628;2022-11-15T10:57:06;8.48;;;1.48;;
75704;SDS011;64391;44.686;37.628;2022-11-15T10:59:35;3.33;;;1.98;;
75704;SDS011;64391;44.686;37.628;2022-11-15T11:00:38;5.20;;;1.70;;
75704;SDS011;64391;44.686;37.628;2022-11-15T11:01:46;2.40;;;2.20;;
75704;SDS011;64391;44.686;37.628;2022-11-15T11:04:00;24.92;;;2.90;;
75704;SDS011;64391;44.686;37.628;2022-11-15T11:05:03;17.25;;;3.00;;
75704;SDS011;64391;44.686;37.628;2022-11-15T11:06:11;7.93;;;2.63;;
75704;SDS011;64391;44.686;37.628;2022-11-15T11:07:21;3.80;;;1.90;;
75704;SDS011;64391;44.686;37.628;2022-11-15T11:08:24;4.75;;;2.17;;
75704;SDS011;64391;44.686;37.628;2022-11-15T11:09:30;5.53;;;2.63;;
75704;SDS011;64391;44.686;37.628;2022-11-15T11:10:33;6.72;;;2.78;;
75704;SDS011;64391;44.686;37.628;2022-11-15T11:11:45;6.30;;;3.00;;
75704;SDS011;64391;44.686;37.628;2022-11-15T11:12:50;4.65;;;2.03;;
75704;SDS011;64391;44.686;37.628;2022-11-15T11:13:52;4.80;;;2.13;;
75704;SDS011;64391;44.686;37.628;2022-11-15T11:14:54;3.50;;;1.75;;
75704;SDS011;64391;44.686;37.628;2022-11-15T11:16:00;7.60;;;2.10;;
75704;SDS011;64391;44.686;37.628;2022-11-15T11:17:16;4.80;;;2.08;;
75704;SDS011;64391;44.686;37.628;2022-11-15T11:21:26;4.55;;;1.40;;
75704;SDS011;64391;44.686;37.628;2022-11-15T11:29:01;5.05;;;4.65;;
75704;SDS011;64391;44.686;37.628;2022-11-15T11:33:42;5.72;;;5.18;;
75704;SDS011;64391;44.686;37.628;2022-11-15T11:38:12;8.20;;;7.45;;
75704;SDS011;64391;44.686;37.628;2022-11-15T11:39:30;6.32;;;4.93;;
75704;SDS011;64391;44.686;37.628;2022-11-15T11:40:37;8.35;;;6.80;;
75704;SDS011;64391;44.686;37.628;2022-11-15T11:47:32;8.27;;;7.45;;
75704;SDS011;64391;44.686;37.628;2022-11-15T11:48:51;7.20;;;6.60;;
75704;SDS011;64391;44.686;37.628;2022-11-15T11:50:15;7.70;;;7.00;;
75704;SDS011;64391;44.686;37.628;2022-11-15T11:51:36;9.68;;;8.88;;
75704;SDS011;64391;44.686;37.628;2022-11-15T11:55:37;9.38;;;8.00;;
75704;SDS011;64391;44.686;37.628;2022-11-15T11:56:43;16.38;;;8.63;;
75704;SDS011;64391;44.686;37.628;2022-11-15T12:01:37;16.15;;;14.77;;
75704;SDS011;64391;44.686;37.628;2022-11-15T12:02:45;14.07;;;12.68;;
75704;SDS011;64391;44.686;37.628;2022-11-15T12:04:11;10.23;;;9.13;;
75704;SDS011;64391;44.686;37.628;2022-11-15T12:06:39;12.00;;;10.82;;
75704;SDS011;64391;44.686;37.628;2022-11-15T12:07:52;9.80;;;9.10;;
75704;SDS011;64391;44.686;37.628;2022-11-15T12:14:11;13.45;;;11.95;;
75704;SDS011;64391;44.686;37.628;2022-11-15T12:15:32;12.13;;;10.95;;
75704;SDS011;64391;44.686;37.628;2022-11-15T12:16:42;10.48;;;9.45;;
75704;SDS011;64391;44.686;37.628;2022-11-15T12:17:43;11.43;;;10.57;;
75704;SDS011;64391;44.686;37.628;2022-11-15T12:18:48;13.15;;;12.05;;
75704;SDS011;64391;44.686;37.628;2022-11-15T12:19:52;13.63;;;12.52;;
75704;SDS011;64391;44.686;37.628;2022-11-15T12:21:03;12.88;;;11.88;;
75704;SDS011;64391;44.686;37.628;2022-11-15T12:22:24;12.27;;;11.07;;
75704;SDS011;64391;44.686;37.628;2022-11-15T12:23:39;11.55;;;10.60;;
75704;SDS011;64391;44.686;37.628;2022-11-15T12:26:11;46.17;;;42.72;;
75704;SDS011;64391;44.686;37.628;2022-11-15T12:27:55;12.10;;;11.18;;
75704;SDS011;64391;44.686;37.628;2022-11-15T12:28:58;15.77;;;14.55;;
75704;SDS011;64391;44.686;37.628;2022-11-15T12:30:08;12.52;;;11.60;;
75704;SDS011;64391;44.686;37.628;2022-11-15T12:32:31;14.32;;;13.10;;
75704;SDS011;64391;44.686;37.628;2022-11-15T12:33:42;27.25;;;25.25;;
75704;SDS011;64391;44.686;37.628;2022-11-15T12:34:46;47.90;;;44.30;;
75704;SDS011;64391;44.686;37.628;2022-11-15T12:35:57;12.55;;;11.48;;
75704;SDS011;64391;44.686;37.628;2022-11-15T12:37:00;20.63;;;18.63;;
75704;SDS011;64391;44.686;37.628;2022-11-15T12:39:07;27.73;;;24.83;;
75704;SDS011;64391;44.686;37.628;2022-11-15T12:40:18;52.97;;;48.53;;
75704;SDS011;64391;44.686;37.628;2022-11-15T12:41:23;48.45;;;43.47;;
75704;SDS011;64391;44.686;37.628;2022-11-15T12:43:37;67.93;;;62.13;;
75704;SDS011;64391;44.686;37.628;2022-11-15T12:47:46;46.38;;;42.22;;
75704;SDS011;64391;44.686;37.628;2022-11-15T12:50:12;50.20;;;45.72;;
75704;SDS011;64391;44.686;37.628;2022-11-15T12:51:19;49.97;;;45.10;;
75704;SDS011;64391;44.686;37.628;2022-11-15T12:52:22;57.80;;;52.38;;
75704;SDS011;64391;44.686;37.628;2022-11-15T12:55:42;58.38;;;51.72;;
75704;SDS011;64391;44.686;37.628;2022-11-15T12:57:44;64.03;;;57.58;;
75704;SDS011;64391;44.686;37.628;2022-11-15T12:59:53;54.25;;;48.72;;
75704;SDS011;64391;44.686;37.628;2022-11-15T13:00:58;62.70;;;56.38;;
75704;SDS011;64391;44.686;37.628;2022-11-15T13:02:00;67.47;;;61.30;;
75704;SDS011;64391;44.686;37.628;2022-11-15T13:03:18;63.08;;;57.45;;
75704;SDS011;64391;44.686;37.628;2022-11-15T13:04:25;67.53;;;61.47;;
75704;SDS011;64391;44.686;37.628;2022-11-15T13:06:42;60.28;;;54.75;;
75704;SDS011;64391;44.686;37.628;2022-11-15T13:09:50;45.83;;;41.50;;
75704;SDS011;64391;44.686;37.628;2022-11-15T13:10:53;48.97;;;43.70;;
75704;SDS011;64391;44.686;37.628;2022-11-15T13:15:01;55.17;;;49.80;;
75704;SDS011;64391;44.686;37.628;2022-11-15T13:16:20;47.88;;;43.38;;
75704;SDS011;64391;44.686;37.628;2022-11-15T13:19:24;60.27;;;43.60;;
75704;SDS011;64391;44.686;37.628;2022-11-15T13:20:30;69.85;;;48.00;;
75704;SDS011;64391;44.686;37.628;2022-11-15T13:21:33;46.13;;;41.22;;
75704;SDS011;64391;44.686;37.628;2022-11-15T13:23:00;48.38;;;43.67;;
75704;SDS011;64391;44.686;37.628;2022-11-15T13:24:15;51.35;;;43.88;;
75704;SDS011;64391;44.686;37.628;2022-11-15T13:26:40;57.75;;;50.60;;
75704;SDS011;64391;44.686;37.628;2022-11-15T13:27:42;50.05;;;44.42;;
75704;SDS011;64391;44.686;37.628;2022-11-15T13:29:46;48.33;;;43.30;;
75704;SDS011;64391;44.686;37.628;2022-11-15T13:31:53;55.97;;;49.92;;
75704;SDS011;64391;44.686;37.628;2022-11-15T13:32:58;52.70;;;47.25;;
75704;SDS011;64391;44.686;37.628;2022-11-15T13:34:25;51.38;;;46.05;;
75704;SDS011;64391;44.686;37.628;2022-11-15T13:35:39;70.63;;;64.50;;
75704;SDS011;64391;44.686;37.628;2022-11-15T13:36:42;73.20;;;66.32;;
75704;SDS011;64391;44.686;37.628;2022-11-15T13:37:43;69.68;;;63.40;;
75704;SDS011;64391;44.686;37.628;2022-11-15T13:39:54;66.00;;;57.90;;
75704;SDS011;64391;44.686;37.628;2022-11-15T13:41:13;92.13;;;82.88;;
75704;SDS011;64391;44.686;37.628;2022-11-15T13:42:22;151.25;;;138.45;;
75704;SDS011;64391;44.686;37.628;2022-11-15T13:43:31;175.23;;;159.18;;
75704;SDS011;64391;44.686;37.628;2022-11-15T13:44:36;158.32;;;121.47;;
75704;SDS011;64391;44.686;37.628;2022-11-15T13:46:39;68.03;;;61.43;;
75704;SDS011;64391;44.686;37.628;2022-11-15T13:47:41;88.47;;;79.93;;
75704;SDS011;64391;44.686;37.628;2022-11-15T13:48:43;130.50;;;117.68;;
75704;SDS011;64391;44.686;37.628;2022-11-15T13:49:47;183.57;;;167.50;;
75704;SDS011;64391;44.686;37.628;2022-11-15T13:50:48;77.18;;;69.03;;
75704;SDS011;64391;44.686;37.628;2022-11-15T13:51:50;74.05;;;67.55;;
75704;SDS011;64391;44.686;37.628;2022-11-15T13:52:56;102.13;;;93.30;;
75704;SDS011;64391;44.686;37.628;2022-11-15T13:54:16;160.07;;;147.38;;
75704;SDS011;64391;44.686;37.628;2022-11-15T13:55:26;152.05;;;139.68;;
75704;SDS011;64391;44.686;37.628;2022-11-15T13:56:29;155.45;;;143.13;;
75704;SDS011;64391;44.686;37.628;2022-11-15T13:58:42;191.07;;;176.75;;
75704;SDS011;64391;44.686;37.628;2022-11-15T13:59:48;172.00;;;158.20;;
75704;SDS011;64391;44.686;37.628;2022-11-15T14:01:00;208.15;;;191.27;;
75704;SDS011;64391;44.686;37.628;2022-11-15T14:02:15;116.35;;;105.80;;
75704;SDS011;64391;44.686;37.628;2022-11-15T14:03:41;135.48;;;124.22;;
75704;SDS011;64391;44.686;37.628;2022-11-15T14:05:00;132.80;;;121.72;;
75704;SDS011;64391;44.686;37.628;2022-11-15T14:06:14;209.57;;;193.40;;
75704;SDS011;64391;44.686;37.628;2022-11-15T14:07:18;194.40;;;179.20;;
75704;SDS011;64391;44.686;37.628;2022-11-15T14:08:23;223.57;;;206.65;;
75704;SDS011;64391;44.686;37.628;2022-11-15T14:11:35;218.95;;;201.63;;
75704;SDS011;64391;44.686;37.628;2022-11-15T14:12:37;240.32;;;222.43;;
75704;SDS011;64391;44.686;37.628;2022-11-15T14:13:39;183.13;;;168.98;;
75704;SDS011;64391;44.686;37.628;2022-11-15T14:14:45;238.57;;;220.57;;
75704;SDS011;64391;44.686;37.628;2022-11-15T14:15:47;240.60;;;221.43;;
75704;SDS011;64391;44.686;37.628;2022-11-15T14:17:54;242.77;;;224.98;;
75704;SDS011;64391;44.686;37.628;2022-11-15T14:19:03;261.73;;;242.30;;
75704;SDS011;64391;44.686;37.628;2022-11-15T14:20:20;274.42;;;254.23;;
75704;SDS011;64391;44.686;37.628;2022-11-15T14:21:28;252.10;;;233.23;;
75704;SDS011;64391;44.686;37.628;2022-11-15T14:22:30;246.43;;;228.05;;
75704;SDS011;64391;44.686;37.628;2022-11-15T14:23:32;266.15;;;246.35;;
75704;SDS011;64391;44.686;37.628;2022-11-15T14:25:35;257.08;;;237.25;;
75704;SDS011;64391;44.686;37.628;2022-11-15T14:27:39;248.05;;;229.30;;
75704;SDS011;64391;44.686;37.628;2022-11-15T14:28:41;260.10;;;240.82;;
75704;SDS011;64391;44.686;37.628;2022-11-15T14:30:45;255.68;;;235.93;;
75704;SDS011;64391;44.686;37.628;2022-11-15T14:31:51;273.58;;;253.27;;
75704;SDS011;64391;44.686;37.628;2022-11-15T14:32:53;261.05;;;240.27;;
75704;SDS011;64391;44.686;37.628;2022-11-15T14:34:59;286.77;;;264.85;;
75704;SDS011;64391;44.686;37.628;2022-11-15T14:36:03;296.90;;;273.80;;
75704;SDS011;64391;44.686;37.628;2022-11-15T14:37:20;315.47;;;290.70;;
75704;SDS011;64391;44.686;37.628;2022-11-15T14:38:25;282.83;;;260.75;;
75704;SDS011;64391;44.686;37.628;2022-11-15T14:39:27;288.90;;;266.35;;
75704;SDS011;64391;44.686;37.628;2022-11-15T14:41:33;267.13;;;246.32;;
75704;SDS011;64391;44.686;37.628;2022-11-15T14:42:38;296.08;;;272.90;;
75704;SDS011;64391;44.686;37.628;2022-11-15T14:43:40;277.00;;;255.45;;
75704;SDS011;64391;44.686;37.628;2022-11-15T14:45:43;281.77;;;259.45;;
75704;SDS011;64391;44.686;37.628;2022-11-15T14:46:44;279.90;;;257.92;;
75704;SDS011;64391;44.686;37.628;2022-11-15T14:47:46;300.05;;;276.08;;
75704;SDS011;64391;44.686;37.628;2022-11-15T14:48:48;276.67;;;254.98;;
75704;SDS011;64391;44.686;37.628;2022-11-15T14:49:50;311.90;;;287.77;;
75704;SDS011;64391;44.686;37.628;2022-11-15T14:51:53;288.17;;;265.77;;
75704;SDS011;64391;44.686;37.628;2022-11-15T14:53:56;308.75;;;283.90;;
75704;SDS011;64391;44.686;37.628;2022-11-15T14:56:00;313.92;;;289.05;;
75704;SDS011;64391;44.686;37.628;2022-11-15T14:58:03;316.97;;;292.67;;
75704;SDS011;64391;44.686;37.628;2022-11-15T14:59:05;310.92;;;285.70;;
75704;SDS011;64391;44.686;37.628;2022-11-15T15:01:47;323.15;;;297.35;;
75704;SDS011;64391;44.686;37.628;2022-11-15T15:02:42;305.00;;;280.95;;
75704;SDS011;64391;44.686;37.628;2022-11-15T15:03:45;320.38;;;294.52;;
75704;SDS011;64391;44.686;37.628;2022-11-15T15:04:47;327.20;;;301.13;;
75704;SDS011;64391;44.686;37.628;2022-11-15T15:05:50;318.77;;;293.85;;
75704;SDS011;64391;44.686;37.628;2022-11-15T15:06:51;318.42;;;293.77;;
75704;SDS011;64391;44.686;37.628;2022-11-15T15:07:53;279.20;;;257.05;;
75704;SDS011;64391;44.686;37.628;2022-11-15T15:08:55;289.38;;;266.35;;
75704;SDS011;64391;44.686;37.628;2022-11-15T15:09:57;282.08;;;259.65;;
75704;SDS011;64391;44.686;37.628;2022-11-15T15:12:00;270.63;;;248.63;;
75704;SDS011;64391;44.686;37.628;2022-11-15T15:13:02;275.25;;;253.90;;
75704;SDS011;64391;44.686;37.628;2022-11-15T15:14:04;279.27;;;257.15;;
75704;SDS011;64391;44.686;37.628;2022-11-15T15:15:15;297.38;;;274.13;;
75704;SDS011;64391;44.686;37.628;2022-11-15T15:16:18;311.42;;;287.50;;
75704;SDS011;64391;44.686;37.628;2022-11-15T15:17:20;304.80;;;280.92;;
75704;SDS011;64391;44.686;37.628;2022-11-15T15:19:23;294.33;;;271.40;;
75704;SDS011;64391;44.686;37.628;2022-11-15T15:21:27;278.70;;;256.85;;
75704;SDS011;64391;44.686;37.628;2022-11-15T15:22:29;248.15;;;228.25;;
75704;SDS011;64391;44.686;37.628;2022-11-15T15:23:31;240.57;;;220.85;;
75704;SDS011;64391;44.686;37.628;2022-11-15T15:24:33;293.73;;;270.08;;
75704;SDS011;64391;44.686;37.628;2022-11-15T15:26:36;277.67;;;255.23;;
75704;SDS011;64391;44.686;37.628;2022-11-15T15:27:39;279.50;;;257.38;;
75704;SDS011;64391;44.686;37.628;2022-11-15T15:29:42;262.08;;;242.30;;
75704;SDS011;64391;44.686;37.628;2022-11-15T15:30:44;255.13;;;235.23;;
75704;SDS011;64391;44.686;37.628;2022-11-15T15:32:47;248.33;;;228.03;;
75704;SDS011;64391;44.686;37.628;2022-11-15T15:33:49;275.02;;;252.77;;
75704;SDS011;64391;44.686;37.628;2022-11-15T15:34:51;283.50;;;261.27;;
75704;SDS011;64391;44.686;37.628;2022-11-15T15:38:25;264.17;;;242.55;;
75704;SDS011;64391;44.686;37.628;2022-11-15T15:39:26;278.98;;;257.33;;
75704;SDS011;64391;44.686;37.628;2022-11-15T15:41:31;226.93;;;209.25;;
75704;SDS011;64391;44.686;37.628;2022-11-15T15:42:32;228.02;;;210.73;;
75704;SDS011;64391;44.686;37.628;2022-11-15T15:44:35;278.25;;;256.65;;
75704;SDS011;64391;44.686;37.628;2022-11-15T15:46:40;249.02;;;230.05;;
75704;SDS011;64391;44.686;37.628;2022-11-15T15:48:43;255.70;;;236.70;;
75704;SDS011;64391;44.686;37.628;2022-11-15T15:49:45;267.15;;;246.52;;
75704;SDS011;64391;44.686;37.628;2022-11-15T15:50:47;223.65;;;206.10;;
75704;SDS011;64391;44.686;37.628;2022-11-15T15:51:50;239.15;;;220.45;;
75704;SDS011;64391;44.686;37.628;2022-11-15T15:52:52;240.60;;;222.50;;
75704;SDS011;64391;44.686;37.628;2022-11-15T15:53:55;265.25;;;244.57;;
75704;SDS011;64391;44.686;37.628;2022-11-15T15:54:58;238.20;;;220.48;;
75704;SDS011;64391;44.686;37.628;2022-11-15T15:56:00;269.00;;;247.82;;
75704;SDS011;64391;44.686;37.628;2022-11-15T15:57:02;262.35;;;243.20;;
75704;SDS011;64391;44.686;37.628;2022-11-15T15:58:04;229.02;;;212.05;;
75704;SDS011;64391;44.686;37.628;2022-11-15T15:59:07;244.77;;;226.07;;
75704;SDS011;64391;44.686;37.628;2022-11-15T16:00:09;242.18;;;223.95;;
75704;SDS011;64391;44.686;37.628;2022-11-15T16:01:14;253.80;;;234.93;;
75704;SDS011;64391;44.686;37.628;2022-11-15T16:02:16;237.55;;;219.50;;
75704;SDS011;64391;44.686;37.628;2022-11-15T16:04:19;211.50;;;194.93;;
75704;SDS011;64391;44.686;37.628;2022-11-15T16:06:26;232.15;;;214.40;;
75704;SDS011;64391;44.686;37.628;2022-11-15T16:07:36;249.00;;;228.90;;
75704;SDS011;64391;44.686;37.628;2022-11-15T16:08:38;235.48;;;217.15;;
75704;SDS011;64391;44.686;37.628;2022-11-15T16:09:39;241.68;;;222.73;;
75704;SDS011;64391;44.686;37.628;2022-11-15T16:10:59;271.63;;;250.18;;
75704;SDS011;64391;44.686;37.628;2022-11-15T16:13:02;245.63;;;226.98;;
75704;SDS011;64391;44.686;37.628;2022-11-15T16:14:05;254.82;;;234.90;;
75704;SDS011;64391;44.686;37.628;2022-11-15T16:15:07;244.40;;;225.50;;
75704;SDS011;64391;44.686;37.628;2022-11-15T16:16:09;269.27;;;249.13;;
75704;SDS011;64391;44.686;37.628;2022-11-15T16:17:15;277.67;;;256.52;;
75704;SDS011;64391;44.686;37.628;2022-11-15T16:18:20;307.38;;;283.95;;
75704;SDS011;64391;44.686;37.628;2022-11-15T16:19:22;295.40;;;272.65;;
75704;SDS011;64391;44.686;37.628;2022-11-15T16:20:29;303.40;;;279.90;;
75704;SDS011;64391;44.686;37.628;2022-11-15T16:21:35;301.30;;;278.05;;
75704;SDS011;64391;44.686;37.628;2022-11-15T16:22:37;283.25;;;261.40;;
75704;SDS011;64391;44.686;37.628;2022-11-15T16:24:40;289.73;;;267.50;;
75704;SDS011;64391;44.686;37.628;2022-11-15T16:26:48;304.70;;;281.45;;
75704;SDS011;64391;44.686;37.628;2022-11-15T16:27:52;323.08;;;298.73;;
75704;SDS011;64391;44.686;37.628;2022-11-15T16:28:54;333.45;;;307.55;;
75704;SDS011;64391;44.686;37.628;2022-11-15T16:29:55;335.70;;;309.75;;
75704;SDS011;64391;44.686;37.628;2022-11-15T16:31:10;336.75;;;310.88;;
75704;SDS011;64391;44.686;37.628;2022-11-15T16:32:13;348.90;;;322.15;;
75704;SDS011;64391;44.686;37.628;2022-11-15T16:33:15;355.95;;;328.88;;
75704;SDS011;64391;44.686;37.628;2022-11-15T16:34:19;337.83;;;310.77;;
75704;SDS011;64391;44.686;37.628;2022-11-15T16:35:20;340.02;;;314.13;;
75704;SDS011;64391;44.686;37.628;2022-11-15T16:37:25;368.75;;;340.80;;
75704;SDS011;64391;44.686;37.628;2022-11-15T16:39:28;369.30;;;341.00;;
75704;SDS011;64391;44.686;37.628;2022-11-15T16:40:32;384.52;;;355.58;;
75704;SDS011;64391;44.686;37.628;2022-11-15T16:41:37;398.70;;;368.45;;
75704;SDS011;64391;44.686;37.628;2022-11-15T16:43:39;398.03;;;367.70;;
75704;SDS011;64391;44.686;37.628;2022-11-15T16:45:43;416.45;;;384.85;;
75704;SDS011;64391;44.686;37.628;2022-11-15T16:46:44;384.98;;;354.88;;
75704;SDS011;64391;44.686;37.628;2022-11-15T16:47:52;392.63;;;362.13;;
75704;SDS011;64391;44.686;37.628;2022-11-15T16:48:53;399.30;;;368.67;;
75704;SDS011;64391;44.686;37.628;2022-11-15T16:50:57;406.02;;;374.05;;
75704;SDS011;64391;44.686;37.628;2022-11-15T16:51:59;424.52;;;388.88;;
75704;SDS011;64391;44.686;37.628;2022-11-15T16:54:02;435.42;;;396.33;;
75704;SDS011;64391;44.686;37.628;2022-11-15T16:55:03;434.90;;;398.27;;
75704;SDS011;64391;44.686;37.628;2022-11-15T16:56:24;389.05;;;358.88;;
75704;SDS011;64391;44.686;37.628;2022-11-15T16:57:26;383.90;;;354.38;;
75704;SDS011;64391;44.686;37.628;2022-11-15T16:59:29;395.00;;;364.95;;
75704;SDS011;64391;44.686;37.628;2022-11-15T17:00:33;361.35;;;333.08;;
75704;SDS011;64391;44.686;37.628;2022-11-15T17:02:38;388.88;;;359.10;;
75704;SDS011;64391;44.686;37.628;2022-11-15T17:04:41;396.47;;;365.70;;
75704;SDS011;64391;44.686;37.628;2022-11-15T17:06:45;408.67;;;377.30;;
75704;SDS011;64391;44.686;37.628;2022-11-15T17:07:49;415.67;;;383.35;;
75704;SDS011;64391;44.686;37.628;2022-11-15T17:08:55;409.92;;;378.58;;
75704;SDS011;64391;44.686;37.628;2022-11-15T17:10:58;408.07;;;376.97;;
75704;SDS011;64391;44.686;37.628;2022-11-15T17:13:01;388.73;;;358.67;;
75704;SDS011;64391;44.686;37.628;2022-11-15T17:15:04;417.38;;;385.27;;
75704;SDS011;64391;44.686;37.628;2022-11-15T17:16:07;418.05;;;386.13;;
75704;SDS011;64391;44.686;37.628;2022-11-15T17:17:13;408.75;;;377.88;;
75704;SDS011;64391;44.686;37.628;2022-11-15T17:18:15;423.55;;;390.17;;
75704;SDS011;64391;44.686;37.628;2022-11-15T17:21:22;417.77;;;385.75;;
75704;SDS011;64391;44.686;37.628;2022-11-15T17:22:24;424.45;;;391.98;;
75704;SDS011;64391;44.686;37.628;2022-11-15T17:23:26;447.02;;;413.13;;
75704;SDS011;64391;44.686;37.628;2022-11-15T17:25:28;435.83;;;402.13;;
75704;SDS011;64391;44.686;37.628;2022-11-15T17:27:31;409.98;;;378.10;;
75704;SDS011;64391;44.686;37.628;2022-11-15T17:28:33;452.90;;;418.52;;
75704;SDS011;64391;44.686;37.628;2022-11-15T17:29:35;433.15;;;399.85;;
75704;SDS011;64391;44.686;37.628;2022-11-15T17:31:41;436.58;;;403.38;;
75704;SDS011;64391;44.686;37.628;2022-11-15T17:32:42;421.65;;;389.23;;
75704;SDS011;64391;44.686;37.628;2022-11-15T17:33:44;449.20;;;415.70;;
75704;SDS011;64391;44.686;37.628;2022-11-15T17:35:53;448.53;;;414.50;;
75704;SDS011;64391;44.686;37.628;2022-11-15T17:36:59;452.67;;;418.38;;
75704;SDS011;64391;44.686;37.628;2022-11-15T17:39:02;433.98;;;400.90;;
75704;SDS011;64391;44.686;37.628;2022-11-15T17:40:04;459.90;;;424.05;;
75704;SDS011;64391;44.686;37.628;2022-11-15T17:41:09;448.40;;;413.20;;
75704;SDS011;64391;44.686;37.628;2022-11-15T17:42:15;447.10;;;412.83;;
75704;SDS011;64391;44.686;37.628;2022-11-15T17:43:17;458.00;;;423.20;;
75704;SDS011;64391;44.686;37.628;2022-11-15T17:44:20;442.15;;;407.70;;
75704;SDS011;64391;44.686;37.628;2022-11-15T17:46:24;426.52;;;393.40;;
75704;SDS011;64391;44.686;37.628;2022-11-15T17:47:27;449.05;;;414.02;;
75704;SDS011;64391;44.686;37.628;2022-11-15T17:49:30;432.05;;;398.48;;
75704;SDS011;64391;44.686;37.628;2022-11-15T17:50:34;452.05;;;417.10;;
75704;SDS011;64391;44.686;37.628;2022-11-15T17:52:37;431.95;;;397.70;;
75704;SDS011;64391;44.686;37.628;2022-11-15T17:54:41;476.83;;;437.55;;
75704;SDS011;64391;44.686;37.628;2022-11-15T17:56:44;425.55;;;390.88;;
75704;SDS011;64391;44.686;37.628;2022-11-15T17:57:46;476.65;;;438.38;;
75704;SDS011;64391;44.686;37.628;2022-11-15T17:58:48;445.95;;;410.13;;
75704;SDS011;64391;44.686;37.628;2022-11-15T17:59:52;465.30;;;428.17;;
75704;SDS011;64391;44.686;37.628;2022-11-15T18:01:55;444.92;;;410.50;;
75704;SDS011;64391;44.686;37.628;2022-11-15T18:03:58;463.30;;;427.15;;
75704;SDS011;64391;44.686;37.628;2022-11-15T18:05:01;435.52;;;401.08;;
75704;SDS011;64391;44.686;37.628;2022-11-15T18:06:04;451.55;;;417.05;;
75704;SDS011;64391;44.686;37.628;2022-11-15T18:07:08;436.52;;;402.90;;
75704;SDS011;64391;44.686;37.628;2022-11-15T18:08:11;444.23;;;410.40;;
75704;SDS011;64391;44.686;37.628;2022-11-15T18:09:16;471.35;;;434.17;;
75704;SDS011;64391;44.686;37.628;2022-11-15T18:10:19;432.15;;;398.50;;
75704;SDS011;64391;44.686;37.628;2022-11-15T18:12:23;430.73;;;396.65;;
75704;SDS011;64391;44.686;37.628;2022-11-15T18:14:26;433.63;;;400.43;;
75704;SDS011;64391;44.686;37.628;2022-11-15T18:15:28;453.60;;;419.15;;
75704;SDS011;64391;44.686;37.628;2022-11-15T18:16:30;465.55;;;429.60;;
75704;SDS011;64391;44.686;37.628;2022-11-15T18:17:34;460.33;;;425.65;;
75704;SDS011;64391;44.686;37.628;2022-11-15T18:18:37;463.98;;;428.63;;
75704;SDS011;64391;44.686;37.628;2022-11-15T18:19:39;451.80;;;417.20;;
75704;SDS011;64391;44.686;37.628;2022-11-15T18:20:40;466.13;;;430.70;;
75704;SDS011;64391;44.686;37.628;2022-11-15T18:21:43;444.90;;;410.60;;
75704;SDS011;64391;44.686;37.628;2022-11-15T18:22:58;418.58;;;386.48;;
75704;SDS011;64391;44.686;37.628;2022-11-15T18:25:01;424.92;;;392.38;;
75704;SDS011;64391;44.686;37.628;2022-11-15T18:26:04;434.73;;;401.63;;